Time;durP1;ratioP1;P1;durP2;ratioP2;P2;SDS_P1;SDS_P2;PMS_P1;PMS_P2;Temp;Humidity;BMP_temperature;BMP_pressure;BME280_temperature;BME280_humidity;BME280_pressure;Samples;Min_cycle;Max_cycle;Signal;HPM_P1;HPM_P2
2023/12/28 00:00:15;;;;;;;4.78;2.67;;;;;;;8.85;100.00;100874.94;5052649;28;20365;-81
2023/12/28 00:02:40;;;;;;;5.30;2.75;;;;;;;8.82;100.00;100876.84;5034052;28;20037;-79
2023/12/28 00:05:06;;;;;;;5.72;2.88;;;;;;;8.55;100.00;100845.69;5034651;28;20029;-80
2023/12/28 00:07:37;;;;;;;6.70;2.80;;;;;;;8.21;100.00;100805.50;5052264;28;20048;-82
2023/12/28 00:10:03;;;;;;;4.55;2.67;;;;;;;8.68;100.00;100877.59;5034935;28;20082;-81
2023/12/28 00:12:29;;;;;;;5.63;2.90;;;;;;;8.38;100.00;100832.94;5052665;28;20082;-81
2023/12/28 00:14:57;;;;;;;4.32;2.65;;;;;;;8.28;100.00;100830.81;5052503;28;20461;-81
2023/12/28 00:17:23;;;;;;;4.65;2.75;;;;;;;8.61;100.00;100882.25;5052222;28;20048;-82
2023/12/28 00:19:48;;;;;;;5.43;2.95;;;;;;;8.46;100.00;100865.06;5052415;28;20069;-80
2023/12/28 00:22:13;;;;;;;6.60;3.00;;;;;;;8.40;100.00;100865.38;5051953;28;20025;-81
2023/12/28 00:24:47;;;;;;;5.15;2.47;;;;;;;8.62;100.00;100893.38;5052579;28;20025;-81
2023/12/28 00:27:19;;;;;;;5.70;2.53;;;;;;;7.74;100.00;100754.81;5052457;28;20024;-82
2023/12/28 00:29:47;;;;;;;5.30;2.83;;;;;;;7.88;100.00;100788.38;5052077;28;20033;-81
2023/12/28 00:32:15;;;;;;;5.53;2.70;;;;;;;8.42;100.00;100879.00;5052198;28;20116;-80
2023/12/28 00:34:50;;;;;;;6.32;2.70;;;;;;;7.63;100.00;100750.25;5052000;28;20032;-80
2023/12/28 00:37:18;;;;;;;3.50;2.60;;;;;;;8.08;100.00;100843.91;5052334;28;20111;-80
2023/12/28 00:39:46;;;;;;;6.72;2.90;;;;;;;7.65;100.00;100775.88;5052215;28;20052;-81
2023/12/28 00:42:17;;;;;;;5.57;3.13;;;;;;;8.01;100.00;100824.53;5052168;28;20036;-80
2023/12/28 00:44:46;;;;;;;5.28;2.85;;;;;;;7.46;100.00;100737.44;5040498;23;20383;-81
2023/12/28 00:47:20;;;;;;;4.32;2.95;;;;;;;8.19;100.00;100857.03;5052260;28;20064;-83
2023/12/28 00:49:52;;;;;;;4.25;2.60;;;;;;;7.80;100.00;100787.94;5051958;28;20047;-81
2023/12/28 00:52:17;;;;;;;5.10;2.88;;;;;;;8.50;100.00;100900.00;5051906;28;20033;-81
2023/12/28 00:54:43;;;;;;;5.43;3.03;;;;;;;8.45;100.00;100896.00;5052129;28;20032;-82
2023/12/28 00:57:08;;;;;;;6.18;3.65;;;;;;;8.60;100.00;100924.34;5051942;28;20024;-82
2023/12/28 00:59:49;;;;;;;7.10;3.50;;;;;;;8.22;100.00;100858.59;5051791;28;20065;-81
2023/12/28 01:02:14;;;;;;;6.28;3.20;;;;;;;8.63;100.00;100934.47;5051707;28;20391;-80
2023/12/28 01:04:39;;;;;;;6.28;3.08;;;;;;;8.40;100.00;100892.84;5052056;28;20096;-81
2023/12/28 01:07:06;;;;;;;6.30;3.13;;;;;;;8.16;100.00;100857.19;5052303;28;20029;-80
2023/12/28 01:09:46;;;;;;;5.40;3.15;;;;;;;8.33;100.00;100889.72;5034096;28;20547;-81
2023/12/28 01:12:11;;;;;;;5.45;3.17;;;;;;;8.17;100.00;100871.72;5051762;28;20025;-80
2023/12/28 01:14:36;;;;;;;6.15;3.35;;;;;;;8.60;100.00;100941.53;5051830;28;20037;-81
2023/12/28 01:17:02;;;;;;;6.78;3.75;;;;;;;8.39;100.00;100899.75;5051963;28;20025;-81
2023/12/28 01:19:27;;;;;;;6.05;3.20;;;;;;;8.51;100.00;100905.97;5051922;28;20036;-82
2023/12/28 01:21:52;;;;;;;5.93;3.10;;;;;;;8.80;100.00;100941.28;5052144;28;20054;-81
2023/12/28 01:24:20;;;;;;;6.13;3.33;;;;;;;8.83;100.00;100948.03;5051654;28;20048;-80
2023/12/28 01:26:51;;;;;;;6.28;3.50;;;;;;;7.78;100.00;100774.34;5051647;28;20021;-80
2023/12/28 01:29:16;;;;;;;6.35;2.80;;;;;;;8.84;100.00;100947.09;5033548;28;20040;-81
2023/12/28 01:31:54;;;;;;;6.05;3.33;;;;;;;8.71;100.00;100931.50;5051565;28;20380;-80
2023/12/28 01:34:19;;;;;;;5.68;2.83;;;;;;;8.09;100.00;100837.00;5053413;28;20033;-82
2023/12/28 01:36:45;;;;;;;5.82;3.30;;;;;;;8.48;100.00;100913.88;5037188;28;20041;-81
2023/12/28 01:39:18;;;;;;;7.28;3.22;;;;;;;8.73;100.00;100962.28;5055138;28;20025;-80
2023/12/28 01:41:44;;;;;;;6.88;3.03;;;;;;;8.71;100.00;100957.22;5055124;28;20082;-80
2023/12/28 01:44:09;;;;;;;6.53;3.03;;;;;;;8.55;100.00;100933.19;5055099;28;20066;-80
2023/12/28 01:46:38;;;;;;;8.57;3.30;;;;;;;8.40;100.00;100906.53;5054868;28;20139;-81
2023/12/28 01:49:05;;;;;;;6.30;3.00;;;;;;;8.56;100.00;100929.75;5055079;28;20021;-79
2023/12/28 01:51:30;;;;;;;6.50;3.15;;;;;;;8.71;100.00;100964.13;5054732;28;20032;-80
2023/12/28 01:53:57;;;;;;;7.40;3.03;;;;;;;8.56;100.00;100952.91;5054894;28;20480;-80
2023/12/28 01:56:23;;;;;;;5.80;2.50;;;;;;;8.18;100.00;100896.53;5036741;28;20039;-81
2023/12/28 01:58:50;;;;;;;7.80;3.42;;;;;;;8.64;100.00;100968.75;5054553;28;20021;-82
2023/12/28 02:01:17;;;;;;;5.32;3.00;;;;;;;8.07;100.00;100882.56;5054767;28;20036;-80
2023/12/28 02:03:42;;;;;;;5.65;3.00;;;;;;;8.60;100.00;100973.25;5054921;28;20086;-82
2023/12/28 02:06:08;;;;;;;7.70;3.03;;;;;;;8.24;100.00;100915.94;5054503;28;20415;-85
2023/12/28 02:08:34;;;;;;;7.15;3.13;;;;;;;8.57;100.00;100973.41;5054247;28;20031;-83
2023/12/28 02:10:59;;;;;;;6.60;2.92;;;;;;;8.54;100.00;100960.69;5054506;28;20028;-85
2023/12/28 02:13:25;;;;;;;6.38;2.90;;;;;;;8.28;100.00;100935.47;5054570;28;20055;-85
2023/12/28 02:16:31;;;;;;;8.02;2.90;;;;;;;8.52;100.00;100979.69;5054674;28;20017;-82
2023/12/28 02:19:03;;;;;;;5.00;2.75;;;;;;;8.18;100.00;100924.81;4992975;28;20529;-83
2023/12/28 02:21:31;;;;;;;5.90;3.28;;;;;;;8.26;100.00;100932.97;4992693;28;20461;-82
2023/12/28 02:23:56;;;;;;;8.25;3.10;;;;;;;8.28;100.00;100935.47;4976464;28;20030;-80
2023/12/28 02:26:24;;;;;;;5.45;2.65;;;;;;;8.46;100.00;100965.44;4993019;28;20033;-81
2023/12/28 02:28:50;;;;;;;6.18;3.08;;;;;;;8.46;100.00;100962.03;4992836;28;20049;-83
2023/12/28 02:31:26;;;;;;;7.35;3.00;;;;;;;8.46;100.00;100959.44;4992819;28;20054;-80
2023/12/28 02:34:04;;;;;;;6.13;3.22;;;;;;;7.89;100.00;100867.16;4976734;28;20541;-80
2023/12/28 02:36:30;;;;;;;7.93;2.90;;;;;;;8.45;100.00;100955.19;4992171;28;20030;-85
2023/12/28 02:38:58;;;;;;;5.90;2.75;;;;;;;8.43;100.00;100964.72;4992778;28;20026;-86
2023/12/28 02:41:27;;;;;;;6.85;2.72;;;;;;;8.28;100.00;100935.47;4992661;28;20077;-81
2023/12/28 02:43:53;;;;;;;8.73;2.90;;;;;;;8.24;100.00;100923.66;4992504;28;20030;-81
2023/12/28 02:46:18;;;;;;;7.90;3.20;;;;;;;8.42;100.00;100952.78;4992374;28;20046;-86
2023/12/28 02:48:43;;;;;;;6.03;2.35;;;;;;;8.34;100.00;100935.13;4976145;28;20049;-82
2023/12/28 02:51:09;;;;;;;6.70;2.67;;;;;;;7.31;100.00;100772.44;4991561;28;20037;-81
2023/12/28 02:53:53;;;;;;;6.95;2.92;;;;;;;7.95;100.00;100877.09;4992296;28;20497;-81
2023/12/28 02:56:27;;;;;;;5.65;2.50;;;;;;;8.13;100.00;100901.06;5052753;28;20040;-81
2023/12/28 02:58:52;;;;;;;6.15;2.58;;;;;;;7.73;100.00;100820.00;5053826;28;20024;-81
2023/12/28 03:01:21;;;;;;;8.30;2.80;;;;;;;7.62;100.00;100801.72;5053563;28;20029;-81
2023/12/28 03:03:49;;;;;;;7.63;3.00;;;;;;;8.42;100.00;100919.34;5053672;28;20087;-80
2023/12/28 03:06:14;;;;;;;6.70;2.47;;;;;;;8.50;100.00;100941.19;5053187;28;20083;-81
2023/12/28 03:08:40;;;;;;;5.93;2.65;;;;;;;8.28;100.00;100904.59;5053559;28;20025;-81
2023/12/28 03:11:08;;;;;;;6.53;2.42;;;;;;;8.33;100.00;100912.88;5052788;28;20044;-80
2023/12/28 03:13:33;;;;;;;8.38;2.47;;;;;;;8.20;100.00;100901.59;5053466;28;20033;-83
2023/12/28 03:16:01;;;;;;;4.68;2.55;;;;;;;7.93;100.00;100844.69;5053380;28;20051;-81
2023/12/28 03:18:27;;;;;;;6.68;2.40;;;;;;;8.18;100.00;100901.66;5053097;28;20499;-83
2023/12/28 03:20:52;;;;;;;5.15;2.35;;;;;;;8.44;100.00;100941.50;5053149;28;20099;-84
2023/12/28 03:23:18;;;;;;;6.35;2.53;;;;;;;8.38;100.00;100933.28;5035278;28;20067;-82
2023/12/28 03:25:43;;;;;;;5.78;2.75;;;;;;;8.55;100.00;100964.09;5053174;28;20028;-85
2023/12/28 03:28:15;;;;;;;6.70;2.83;;;;;;;8.63;100.00;100954.22;5053094;28;20025;-80
2023/12/28 03:30:42;;;;;;;8.02;2.83;;;;;;;8.61;100.00;100943.19;5053042;28;20029;-80
2023/12/28 03:33:07;;;;;;;5.80;2.58;;;;;;;7.81;100.00;100811.91;5053022;28;20490;-85
2023/12/28 03:35:36;;;;;;;6.32;2.35;;;;;;;8.50;100.00;100914.63;5052771;28;20131;-81
2023/12/28 03:38:13;;;;;;;5.32;2.70;;;;;;;8.78;100.00;100929.44;5052712;28;20028;-82
2023/12/28 03:40:47;;;;;;;6.22;2.38;;;;;;;8.89;100.00;100961.41;5052860;28;20029;-80
2023/12/28 03:43:28;;;;;;;7.38;2.42;;;;;;;8.93;100.00;100956.06;5052962;28;20103;-81
2023/12/28 03:46:05;;;;;;;6.40;2.93;;;;;;;7.79;100.00;100758.00;5052580;28;20541;-82
2023/12/28 03:51:14;;;;;;;7.90;2.47;;;;;;;8.84;100.00;100934.22;5059094;23;20048;-81
2023/12/28 03:53:39;;;;;;;7.45;2.40;;;;;;;8.72;100.00;100915.13;5052566;28;20024;-80
2023/12/28 03:56:35;;;;;;;6.72;2.50;;;;;;;8.88;100.00;100931.41;5052095;28;20025;-81
2023/12/28 03:59:02;;;;;;;9.85;2.63;;;;;;;8.02;100.00;100793.59;5052689;28;20032;-83
2023/12/28 04:01:30;;;;;;;7.68;2.40;;;;;;;8.83;100.00;100920.53;5052460;28;20384;-83
2023/12/28 04:04:01;;;;;;;8.15;2.75;;;;;;;8.04;100.00;100796.09;5052622;28;20177;-81
2023/12/28 04:06:39;;;;;;;8.00;3.03;;;;;;;8.94;100.00;100939.72;5052516;28;20033;-81
2023/12/28 04:09:23;;;;;;;9.02;2.88;;;;;;;7.71;100.00;100737.81;5034522;28;20063;-82
2023/12/28 04:11:57;;;;;;;5.72;2.00;;;;;;;8.69;100.00;100899.84;5052509;28;20078;-81
2023/12/28 04:14:26;;;;;;;8.32;2.30;;;;;;;8.96;100.00;100954.19;5052159;28;20029;-80
2023/12/28 04:16:54;;;;;;;8.65;2.40;;;;;;;8.47;100.00;100864.16;5052271;28;20388;-81
2023/12/28 04:19:25;;;;;;;10.63;3.53;;;;;;;8.27;100.00;100800.84;5052290;28;20076;-82
2023/12/28 04:21:55;;;;;;;6.65;2.20;;;;;;;9.18;100.00;100961.56;5052645;28;20552;-80
2023/12/28 04:24:21;;;;;;;8.68;2.25;;;;;;;9.15;100.00;100946.28;5052641;28;20029;-81
2023/12/28 04:26:46;;;;;;;9.32;2.58;;;;;;;9.20;100.00;100957.16;5052358;28;20483;-81
2023/12/28 04:29:14;;;;;;;8.68;2.67;;;;;;;9.20;100.00;100934.78;5052638;28;20036;-81
2023/12/28 04:31:41;;;;;;;8.20;2.47;;;;;;;9.19;100.00;100956.31;5052394;28;20048;-82
2023/12/28 04:34:07;;;;;;;12.40;2.38;;;;;;;9.05;100.00;100916.81;5052597;28;20444;-85
2023/12/28 04:36:32;;;;;;;12.77;2.83;;;;;;;8.90;100.00;100906.41;5034163;28;20120;-83
2023/12/28 04:39:00;;;;;;;11.73;2.70;;;;;;;9.12;100.00;100944.69;5052033;28;20104;-80
2023/12/28 04:41:34;;;;;;;7.97;2.72;;;;;;;9.10;100.00;100959.41;5052317;28;20445;-80
2023/12/28 04:43:59;;;;;;;8.63;2.65;;;;;;;8.85;100.00;100920.47;5052057;28;20079;-86
2023/12/28 04:46:24;;;;;;;7.45;2.40;;;;;;;9.06;100.00;100960.50;5051915;28;20362;-81
2023/12/28 04:48:50;;;;;;;8.13;2.75;;;;;;;9.10;100.00;100945.69;5051651;28;20551;-79
2023/12/28 04:51:15;;;;;;;9.07;2.47;;;;;;;9.19;100.00;100955.50;5052173;28;20024;-82
2023/12/28 04:53:43;;;;;;;9.18;2.50;;;;;;;8.04;100.00;100755.78;5052050;28;20063;-81
2023/12/28 04:56:08;;;;;;;8.70;2.72;;;;;;;8.91;100.00;100894.34;5051927;28;20432;-81
2023/12/28 04:58:34;;;;;;;8.88;2.40;;;;;;;9.29;100.00;100950.66;5051868;28;20025;-81
2023/12/28 05:01:01;;;;;;;8.25;2.38;;;;;;;9.34;100.00;100948.66;5051719;28;20059;-81
2023/12/28 05:03:32;;;;;;;12.95;3.05;;;;;;;9.38;100.00;100951.00;5051946;28;20444;-81
2023/12/28 05:05:58;;;;;;;14.10;3.15;;;;;;;9.34;100.00;100933.19;5051829;28;20025;-81
2023/12/28 05:08:23;;;;;;;10.98;2.70;;;;;;;9.46;100.00;100943.66;5034169;28;20132;-81
2023/12/28 05:10:48;;;;;;;11.70;2.65;;;;;;;9.26;100.00;100896.75;5055526;28;20048;-84
2023/12/28 05:13:20;;;;;;;11.80;2.92;;;;;;;9.65;100.00;100964.06;5055662;28;20071;-82
2023/12/28 05:15:47;;;;;;;10.35;2.33;;;;;;;9.64;100.00;100964.16;5055524;28;20025;-83
2023/12/28 05:18:22;;;;;;;9.32;2.38;;;;;;;9.30;100.00;100926.56;5055602;28;20450;-84
2023/12/28 05:20:49;;;;;;;11.70;2.83;;;;;;;8.73;100.00;100824.09;5062031;23;20047;-80
2023/12/28 05:23:15;;;;;;;13.30;3.45;;;;;;;8.67;100.00;100816.72;5054942;28;20067;-85
2023/12/28 05:25:55;;;;;;;8.80;2.30;;;;;;;8.68;100.00;100838.16;5055135;28;20021;-84
2023/12/28 05:28:21;;;;;;;7.07;2.50;;;;;;;9.36;100.00;100968.28;5055305;28;20385;-85
2023/12/28 05:31:01;;;;;;;13.32;2.20;;;;;;;8.25;100.00;100812.94;5055250;28;20040;-81
2023/12/28 05:33:27;;;;;;;9.53;2.20;;;;;;;8.58;100.00;100850.69;5055157;28;20025;-84
2023/12/28 05:35:55;;;;;;;10.60;2.92;;;;;;;8.98;100.00;100941.22;5037176;28;20082;-83
2023/12/28 05:38:20;;;;;;;9.90;2.75;;;;;;;8.58;100.00;100892.72;5055030;28;20035;-81
2023/12/28 05:40:46;;;;;;;6.13;2.08;;;;;;;8.58;100.00;100902.19;5055314;28;20017;-82
2023/12/28 05:43:11;;;;;;;11.82;3.03;;;;;;;8.76;100.00;100926.94;5054956;28;20029;-80
2023/12/28 05:45:42;;;;;;;7.53;2.50;;;;;;;9.09;100.00;100970.63;5054877;28;20200;-82
2023/12/28 05:48:10;;;;;;;9.70;2.83;;;;;;;9.24;100.00;100963.78;5054879;28;20052;-82
2023/12/28 05:50:45;;;;;;;10.75;2.88;;;;;;;8.91;100.00;100886.63;5054978;28;20029;-82
2023/12/28 05:53:21;;;;;;;12.65;3.00;;;;;;;8.73;100.00;100855.00;5054649;28;20029;-81
2023/12/28 05:55:47;;;;;;;13.25;3.13;;;;;;;9.45;100.00;100975.50;5054865;28;20456;-87
2023/12/28 05:58:15;;;;;;;11.13;2.83;;;;;;;9.44;100.00;100971.28;5054617;28;20060;-81
2023/12/28 06:00:41;;;;;;;10.15;2.25;;;;;;;9.17;100.00;100937.56;5054915;28;20032;-81
2023/12/28 06:03:12;;;;;;;12.60;2.67;;;;;;;9.47;100.00;100989.13;5055299;28;20029;-82
2023/12/28 06:05:43;;;;;;;11.45;2.83;;;;;;;9.32;100.00;100960.78;5054766;28;20029;-81
2023/12/28 06:08:15;;;;;;;9.27;2.88;;;;;;;8.25;100.00;100800.09;5054255;28;20067;-82
2023/12/28 06:10:49;;;;;;;11.32;3.00;;;;;;;8.48;100.00;100821.22;5054431;28;20029;-81
2023/12/28 06:13:30;;;;;;;8.52;2.60;;;;;;;8.52;100.00;100845.88;5054615;28;20376;-82
2023/12/28 06:15:56;;;;;;;9.73;2.33;;;;;;;8.38;100.00;100810.59;5054677;28;20021;-82
2023/12/28 06:18:22;;;;;;;11.98;2.90;;;;;;;9.55;100.00;100988.72;5053289;28;20054;-85
2023/12/28 06:20:58;;;;;;;10.68;2.53;;;;;;;8.56;100.00;100825.03;5053543;28;20056;-81
2023/12/28 06:23:24;;;;;;;11.38;2.97;;;;;;;9.06;100.00;100892.69;5054211;28;20025;-85
2023/12/28 06:25:49;;;;;;;13.10;2.95;;;;;;;9.20;100.00;100921.91;5054308;28;20021;-86
2023/12/28 06:28:15;;;;;;;9.65;2.60;;;;;;;9.31;100.00;100947.09;5054587;28;20088;-84
2023/12/28 06:30:40;;;;;;;11.02;2.78;;;;;;;9.61;100.00;100996.09;5054210;28;20381;-84
2023/12/28 06:33:05;;;;;;;11.27;2.70;;;;;;;9.62;100.00;101004.66;5054232;28;20063;-84
2023/12/28 06:35:33;;;;;;;12.88;2.70;;;;;;;9.18;100.00;100925.50;5053978;28;20484;-83
2023/12/28 06:38:14;;;;;;;11.30;2.60;;;;;;;9.64;100.00;101003.69;5054124;28;20032;-81
2023/12/28 06:40:39;;;;;;;11.97;2.73;;;;;;;8.88;100.00;100869.63;5054239;28;20021;-83
2023/12/28 06:43:16;;;;;;;11.00;2.80;;;;;;;9.09;100.00;100918.28;5054195;28;20028;-80
2023/12/28 06:45:45;;;;;;;12.45;2.80;;;;;;;8.52;100.00;100828.69;5022120;28;20412;-81
2023/12/28 06:48:14;;;;;;;11.80;2.70;;;;;;;8.47;100.00;100837.59;5035913;28;20112;-82
2023/12/28 06:50:45;;;;;;;10.68;2.67;;;;;;;9.44;100.00;101014.25;5053483;28;20029;-81
2023/12/28 06:53:11;;;;;;;13.55;2.75;;;;;;;9.26;100.00;100985.19;5053909;28;20035;-85
2023/12/28 06:55:36;;;;;;;10.30;3.15;;;;;;;9.32;100.00;101004.59;5053825;28;20021;-83
2023/12/28 06:58:01;;;;;;;14.02;2.55;;;;;;;9.28;100.00;101006.53;5053636;28;20532;-83
2023/12/28 07:00:27;;;;;;;12.90;3.17;;;;;;;8.85;100.00;100931.59;5035358;28;20488;-81
2023/12/28 07:02:54;;;;;;;11.65;2.78;;;;;;;9.31;100.00;101024.41;5053428;28;20120;-81
2023/12/28 07:05:20;;;;;;;12.05;2.90;;;;;;;9.34;100.00;101025.97;5053419;28;20037;-83
2023/12/28 07:07:45;;;;;;;13.73;3.35;;;;;;;9.37;100.00;101025.81;5053268;28;20043;-81
2023/12/28 07:10:18;;;;;;;13.02;3.20;;;;;;;9.39;100.00;101026.56;5053241;28;20056;-81
2023/12/28 07:12:43;;;;;;;13.25;2.90;;;;;;;9.28;100.00;101005.69;5053354;28;20068;-81
2023/12/28 07:15:18;;;;;;;14.23;3.53;;;;;;;9.41;100.00;101004.94;5053744;28;20060;-81
2023/12/28 07:17:43;;;;;;;13.00;2.63;;;;;;;9.30;100.00;100991.81;5034782;28;20045;-86
2023/12/28 07:20:10;;;;;;;9.93;2.63;;;;;;;9.52;100.00;101034.44;5052883;28;20091;-78
2023/12/28 07:22:36;;;;;;;10.63;2.70;;;;;;;9.58;100.00;101034.94;5050472;28;20082;-76
2023/12/28 07:25:04;;;;;;;10.25;2.90;;;;;;;9.39;100.00;101019.66;5053177;28;20327;-81
2023/12/28 07:27:29;;;;;;;12.40;2.83;;;;;;;9.34;100.00;101023.38;5053185;28;20021;-80
2023/12/28 07:29:57;;;;;;;17.20;3.20;;;;;;;9.41;100.00;101048.75;5034767;28;20037;-82
2023/12/28 07:35:48;;;;;;;11.95;3.00;;;;;;;8.32;100.00;100891.47;5052518;28;20040;-84
2023/12/28 07:38:29;;;;;;;12.40;3.30;;;;;;;8.98;100.00;100991.00;5052668;28;20059;-82
2023/12/28 07:40:54;;;;;;;10.03;2.60;;;;;;;9.06;100.00;101000.88;5052402;28;20358;-85
2023/12/28 07:43:20;;;;;;;12.15;3.28;;;;;;;9.05;100.00;101000.06;5052510;28;20032;-86
2023/12/28 07:46:00;;;;;;;13.88;3.03;;;;;;;8.36;100.00;100884.47;5052515;28;20028;-84
2023/12/28 07:48:26;;;;;;;17.83;3.15;;;;;;;8.40;100.00;100903.16;5051856;28;20025;-87
2023/12/28 07:51:05;;;;;;;17.58;3.20;;;;;;;8.64;100.00;100935.28;5052511;28;20032;-83
2023/12/28 07:53:42;;;;;;;13.25;3.20;;;;;;;8.50;100.00;100909.47;5052728;28;20488;-83
2023/12/28 07:56:07;;;;;;;14.48;3.58;;;;;;;9.10;100.00;101012.69;5052182;28;20032;-86
2023/12/28 07:58:33;;;;;;;18.52;3.25;;;;;;;8.56;100.00;100932.31;5052486;28;20025;-81
2023/12/28 08:01:01;;;;;;;13.32;2.72;;;;;;;9.10;100.00;101004.94;5033595;28;20124;-80
2023/12/28 08:03:44;;;;;;;10.32;2.55;;;;;;;8.47;100.00;100919.94;5052866;28;20124;-87
2023/12/28 08:06:16;;;;;;;12.65;2.97;;;;;;;8.63;100.00;100947.34;5052438;28;20029;-83
2023/12/28 08:08:50;;;;;;;;;;;;;;;9.58;100.00;101096.81;5035058;28;20496;-82
2023/12/28 08:11:24;;;;;;;13.15;3.28;;;;;;;9.43;100.00;101071.84;5039096;23;20011;-82
2023/12/28 08:13:49;;;;;;;14.80;2.97;;;;;;;9.55;100.00;101091.00;5032245;28;20022;-83
2023/12/28 08:16:14;;;;;;;13.38;3.35;;;;;;;9.29;100.00;101044.28;5032370;28;20028;-82
2023/12/28 08:18:40;;;;;;;12.77;2.70;;;;;;;9.61;100.00;101106.97;5047857;28;20033;-77
2023/12/28 08:21:05;;;;;;;11.32;2.95;;;;;;;9.58;100.00;101076.19;5031511;28;20025;-80
2023/12/28 08:23:31;;;;;;;13.40;2.90;;;;;;;9.67;100.00;101103.22;5033068;28;20355;-81
2023/12/28 08:25:56;;;;;;;12.88;2.97;;;;;;;9.69;100.00;101088.50;5032186;28;20030;-81
2023/12/28 08:28:24;;;;;;;13.13;2.80;;;;;;;9.69;100.00;101083.34;5032247;28;20104;-80
2023/12/28 08:30:49;;;;;;;13.25;2.88;;;;;;;9.51;100.00;101043.09;5031184;28;20029;-81
2023/12/28 08:33:15;;;;;;;15.20;3.25;;;;;;;9.58;100.00;101059.91;5032131;28;20033;-80
2023/12/28 08:35:40;;;;;;;12.65;3.30;;;;;;;9.51;100.00;101048.25;5030548;28;20049;-81
2023/12/28 08:38:06;;;;;;;14.50;3.13;;;;;;;9.78;100.00;101093.16;5031828;28;20029;-81
2023/12/28 08:40:31;;;;;;;13.65;3.47;;;;;;;9.72;100.00;101068.53;5032409;28;20026;-79
2023/12/28 08:42:57;;;;;;;11.90;3.10;;;;;;;9.83;100.00;101098.88;5033843;28;20179;-77
2023/12/28 08:45:22;;;;;;;13.32;2.72;;;;;;;9.84;100.00;101108.28;5036193;28;20034;-77
2023/12/28 08:47:47;;;;;;;14.07;3.30;;;;;;;9.65;100.00;101068.97;5036087;28;20088;-81
2023/12/28 08:50:13;;;;;;;17.15;3.40;;;;;;;9.82;100.00;101097.22;5036056;28;20385;-80
2023/12/28 08:52:38;;;;;;;15.05;2.95;;;;;;;9.91;100.00;101113.94;5035902;28;20381;-79
2023/12/28 08:55:05;;;;;;;11.60;2.63;;;;;;;9.92;100.00;101111.25;5035595;28;20032;-80
2023/12/28 08:57:30;;;;;;;15.93;2.92;;;;;;;9.91;100.00;101122.50;5036013;28;20397;-82
2023/12/28 08:59:55;;;;;;;12.15;2.92;;;;;;;9.93;100.00;101132.72;5036225;28;20108;-78
2023/12/28 09:02:21;;;;;;;14.65;2.88;;;;;;;9.90;100.00;101146.63;5036078;28;20057;-77
2023/12/28 09:04:46;;;;;;;12.90;3.35;;;;;;;9.90;100.00;101146.63;5035727;28;20091;-76
2023/12/28 09:07:13;;;;;;;13.00;3.10;;;;;;;9.67;100.00;101111.78;5034875;28;20097;-75
2023/12/28 09:09:38;;;;;;;11.70;2.60;;;;;;;9.69;100.00;101116.84;5035981;28;20104;-76
2023/12/28 09:12:04;;;;;;;12.77;2.88;;;;;;;9.71;100.00;101115.03;5035243;28;20184;-76
2023/12/28 09:14:29;;;;;;;11.55;2.50;;;;;;;9.62;100.00;101097.47;5035811;28;20056;-77
2023/12/28 09:16:54;;;;;;;14.77;3.47;;;;;;;9.85;100.00;101147.81;5035583;28;20033;-76
2023/12/28 09:19:19;;;;;;;13.25;2.83;;;;;;;9.74;100.00;101135.50;5035592;28;20091;-76
2023/12/28 09:21:45;;;;;;;14.32;3.28;;;;;;;9.84;100.00;101146.16;5035518;28;20238;-75
2023/12/28 09:24:10;;;;;;;11.85;2.40;;;;;;;9.72;100.00;101114.09;5035243;28;20029;-76
2023/12/28 09:26:36;;;;;;;12.90;3.33;;;;;;;9.83;100.00;101132.41;5035556;28;20421;-74
2023/12/28 09:29:01;;;;;;;13.20;2.88;;;;;;;9.76;100.00;101121.59;5035378;28;20547;-77
2023/12/28 09:31:26;;;;;;;13.05;3.70;;;;;;;9.91;100.00;101150.88;5035625;28;20033;-78
2023/12/28 09:33:52;;;;;;;16.60;3.15;;;;;;;9.87;100.00;101144.22;5035253;28;20026;-77
2023/12/28 09:36:18;;;;;;;15.18;3.60;;;;;;;9.94;100.00;101161.03;5035081;28;20361;-77
2023/12/28 09:38:43;;;;;;;13.20;2.92;;;;;;;10.01;100.00;101161.50;5035133;28;20030;-77
2023/12/28 09:41:17;;;;;;;11.98;2.78;;;;;;;9.75;100.00;101111.38;5035015;28;20026;-77
2023/12/28 09:44:10;;;;;;;14.77;3.03;;;;;;;10.06;100.00;101162.94;5035465;28;20079;-76
2023/12/28 09:46:36;;;;;;;14.48;2.85;;;;;;;9.96;100.00;101143.72;5035035;28;20377;-80
2023/12/28 09:49:03;;;;;;;12.65;2.88;;;;;;;10.15;100.00;101169.34;5035212;28;20022;-76
2023/12/28 09:51:29;;;;;;;13.38;3.25;;;;;;;10.16;100.00;101176.16;5034698;28;20087;-77
2023/12/28 09:53:55;;;;;;;19.55;3.70;;;;;;;10.21;100.00;101186.22;5034070;28;20030;-78
2023/12/28 09:56:21;;;;;;;12.70;3.35;;;;;;;10.11;100.00;101169.56;5034567;28;20029;-77
2023/12/28 09:58:50;;;;;;;11.70;3.08;;;;;;;10.21;100.00;101188.78;5034810;28;20029;-76
2023/12/28 10:01:17;;;;;;;11.52;2.58;;;;;;;10.00;100.00;101158.09;5034761;28;20093;-76
2023/12/28 10:03:42;;;;;;;17.98;3.45;;;;;;;10.15;100.00;101182.25;5033406;28;20388;-78
2023/12/28 10:06:08;;;;;;;14.13;2.92;;;;;;;10.03;100.00;101172.59;5034435;28;20108;-78
2023/12/28 10:08:34;;;;;;;12.57;2.65;;;;;;;10.19;100.00;101190.63;5034638;28;20025;-78
2023/12/28 10:11:00;;;;;;;15.25;3.05;;;;;;;10.07;100.00;101164.59;5034432;28;20060;-79
2023/12/28 10:13:26;;;;;;;14.02;3.22;;;;;;;10.03;100.00;101159.72;5034681;28;20491;-78
2023/12/28 10:15:51;;;;;;;14.32;2.97;;;;;;;10.06;100.00;101152.63;5034722;28;20104;-80
2023/12/28 10:18:19;;;;;;;14.07;2.67;;;;;;;10.26;100.00;101182.50;5034375;28;20049;-75
2023/12/28 10:20:50;;;;;;;13.70;3.42;;;;;;;10.21;100.00;101174.13;5034410;28;20469;-76
2023/12/28 10:23:16;;;;;;;14.60;3.80;;;;;;;10.13;100.00;101158.28;5034486;28;20025;-77
2023/12/28 10:25:44;;;;;;;18.52;3.08;;;;;;;10.21;100.00;101163.00;5034533;28;20037;-79
2023/12/28 10:28:12;;;;;;;15.70;3.00;;;;;;;10.31;100.00;101183.06;5034394;28;20040;-80
2023/12/28 10:30:38;;;;;;;15.10;3.20;;;;;;;10.30;100.00;101180.56;5034114;28;20110;-79
2023/12/28 10:33:07;;;;;;;16.10;3.65;;;;;;;10.19;100.00;101170.00;5033902;28;20065;-78
2023/12/28 10:35:33;;;;;;;13.30;2.80;;;;;;;10.30;100.00;101176.25;5034171;28;20022;-78
2023/12/28 10:38:04;;;;;;;14.63;3.25;;;;;;;10.30;100.00;101181.41;5034478;28;20483;-75
2023/12/28 10:40:35;;;;;;;14.10;3.00;;;;;;;10.23;100.00;101156.03;5034189;28;20029;-77
2023/12/28 10:43:05;;;;;;;16.25;3.33;;;;;;;10.00;100.00;101121.97;5034065;28;20109;-80
2023/12/28 10:45:34;;;;;;;19.30;2.72;;;;;;;10.14;100.00;101143.63;5031960;28;20052;-78
2023/12/28 10:48:09;;;;;;;13.75;3.35;;;;;;;10.22;100.00;101159.50;5033949;28;20058;-78
2023/12/28 10:50:47;;;;;;;12.88;3.30;;;;;;;10.26;100.00;101163.59;5034200;28;20036;-77
2023/12/28 10:53:26;;;;;;;13.25;3.20;;;;;;;10.32;100.00;101174.44;5034095;28;20386;-78
2023/12/28 10:56:08;;;;;;;15.52;3.28;;;;;;;10.37;100.00;101179.31;5033636;28;20021;-77
2023/12/28 10:58:50;;;;;;;14.45;2.92;;;;;;;10.39;100.00;101174.91;5033644;28;20040;-76
2023/12/28 11:01:29;;;;;;;13.68;3.42;;;;;;;10.39;100.00;101172.31;5033517;28;20474;-78
2023/12/28 11:04:28;;;;;;;15.38;3.58;;;;;;;10.42;100.00;101176.47;5033820;28;20374;-78
2023/12/28 11:06:56;;;;;;;15.77;3.45;;;;;;;10.33;100.00;101157.19;5033381;28;20132;-77
2023/12/28 11:09:23;;;;;;;13.27;2.80;;;;;;;10.45;100.00;101161.66;5033538;28;20080;-76
2023/12/28 11:11:51;;;;;;;14.48;3.15;;;;;;;10.25;100.00;101128.41;5033080;28;20054;-78
2023/12/28 11:14:17;;;;;;;13.98;3.38;;;;;;;10.41;100.00;101151.56;5033358;28;20033;-77
2023/12/28 11:16:43;;;;;;;13.77;3.15;;;;;;;10.50;100.00;101157.03;5033247;28;20028;-78
2023/12/28 11:19:09;;;;;;;13.88;3.30;;;;;;;10.43;100.00;101129.09;5033339;28;20030;-77
2023/12/28 11:21:35;;;;;;;12.98;3.35;;;;;;;10.38;100.00;101111.28;5033316;28;20029;-76
2023/12/28 11:24:02;;;;;;;14.60;3.00;;;;;;;10.57;100.00;101144.63;5033113;28;20036;-77
2023/12/28 11:26:28;;;;;;;16.27;4.40;;;;;;;10.56;100.00;101141.19;5033199;28;20040;-77
2023/12/28 11:29:04;;;;;;;14.82;3.85;;;;;;;10.47;100.00;101123.66;5033361;28;20049;-74
2023/12/28 11:31:35;;;;;;;12.50;3.38;;;;;;;10.59;100.00;101129.84;5033057;28;20037;-74